UASS

Semipalatinsk Airport

Semey, Kazakhstan
TAF UASS 162302Z 1700/1709 36005G10MPS 9999 SCT040 SCT100 TEMPO 1703/1709 04008MPS BKN030CB
Issued Valid From Valid To
Jul-16 @ 23:02 UTC
(an hour ago)
Jul-17 @ 00:00 UTC
(25 minutes ago)
Jul-17 @ 09:00 UTC
(in 9 hours)
Jul-17 @ 00:00 to Jul-17 @ 09:00
TAF UASS 162302Z 1700/1709 36005G10MPS 9999 SCT040 SCT100
Wind Visibility Clouds
360° at 10 knots
 Gusting to 19 knots
10,000+ meters
  • Scattered at 4,000' AGL
  • Scattered at 10,000' AGL
Temporary Jul-17 @ 03:00 to Jul-17 @ 09:00
TEMPO 1703/1709 04008MPS BKN030CB
Wind Clouds
40° at 16 knots
  • Broken at 3,000' AGL
TAF UASS 162302Z 1700/1709 36005G10MPS 9999 SCT040 SCT100 TEMPO 1703/1709 04008MPS BKN030CB
Issued Jul-16 @ 23:02 UTC
(an hour ago)
Valid From Jul-17 @ 00:00 UTC
(25 minutes ago)
Valid To Jul-17 @ 09:00 UTC
(in 9 hours)
Jul-17 @ 00:00 - Jul-17 @ 09:00
Wind Visibility
360° at 10 knots
 Gusting to 19 knots
10,000+ meters
Clouds
  • Scattered at 4,000' AGL
  • Scattered at 10,000' AGL
Temporary Jul-17 @ 03:00 - Jul-17 @ 09:00
Wind
40° at 16 knots
Clouds
  • Broken at 3,000' AGL